createdAt,value
2023-01-19T00:01:24.520Z,7.90
2023-01-19T00:03:52.540Z,8.27
2023-01-19T00:06:19.173Z,8.32
2023-01-19T00:08:46.093Z,8.88
2023-01-19T00:11:13.152Z,8.65
2023-01-19T00:13:40.296Z,9.37
2023-01-19T00:16:07.521Z,9.35
2023-01-19T00:18:34.370Z,9.50
2023-01-19T00:21:00.908Z,8.40
2023-01-19T00:23:27.503Z,8.50
2023-01-19T00:25:54.294Z,9.13
2023-01-19T00:28:23.315Z,9.57
2023-01-19T00:30:50.421Z,8.98
2023-01-19T00:33:16.997Z,9.32
2023-01-19T00:35:43.838Z,9.05
2023-01-19T00:38:11.359Z,8.87
2023-01-19T00:40:38.193Z,7.90
2023-01-19T00:43:05.138Z,9.05
2023-01-19T00:45:32.062Z,8.77
2023-01-19T00:47:58.726Z,9.15
2023-01-19T00:50:26.527Z,9.83
2023-01-19T00:52:54.401Z,9.77
2023-01-19T00:55:23.293Z,9.27
2023-01-19T00:57:49.842Z,8.65
2023-01-19T01:00:19.488Z,10.82
2023-01-19T01:02:48.231Z,9.63
2023-01-19T01:05:14.879Z,9.63
2023-01-19T01:07:41.831Z,9.35
2023-01-19T01:10:23.275Z,9.57
2023-01-19T01:12:56.040Z,8.65
2023-01-19T01:15:26.637Z,9.03
2023-01-19T01:17:53.706Z,9.02
2023-01-19T01:20:25.406Z,9.88
2023-01-19T01:22:53.142Z,10.10
2023-01-19T01:25:22.625Z,8.55
2023-01-19T01:27:49.424Z,9.20
2023-01-19T01:30:16.365Z,9.73
2023-01-19T01:32:43.886Z,10.00
2023-01-19T01:35:11.404Z,9.38
2023-01-19T01:40:19.674Z,9.33
2023-01-19T01:42:46.554Z,9.82
2023-01-19T01:45:35.488Z,8.38
2023-01-19T01:48:31.941Z,9.02
2023-01-19T01:51:26.660Z,7.55
2023-01-19T01:54:03.703Z,7.83
2023-01-19T01:56:38.277Z,7.50
2023-01-19T01:59:08.148Z,7.07
2023-01-19T02:01:54.380Z,7.03
2023-01-19T02:04:22.326Z,6.80
2023-01-19T02:07:07.568Z,6.60
2023-01-19T02:09:56.246Z,5.88
2023-01-19T02:12:42.522Z,5.65
2023-01-19T02:15:23.518Z,5.63
2023-01-19T02:17:50.911Z,5.65
2023-01-19T02:20:17.932Z,4.90
2023-01-19T02:22:49.711Z,5.90
2023-01-19T02:25:19.127Z,5.70
2023-01-19T02:27:46.094Z,5.40
2023-01-19T02:30:16.611Z,4.45
2023-01-19T02:32:43.664Z,5.37
2023-01-19T02:35:11.636Z,4.95
2023-01-19T02:37:40.403Z,5.13
2023-01-19T02:40:19.982Z,5.03
2023-01-19T02:42:50.056Z,4.85
2023-01-19T02:45:24.214Z,4.53
2023-01-19T02:47:52.030Z,4.13
2023-01-19T02:50:38.102Z,4.40
2023-01-19T02:53:29.870Z,5.18
2023-01-19T02:56:41.268Z,4.50
2023-01-19T02:59:26.263Z,4.40
2023-01-19T03:02:31.243Z,4.10
2023-01-19T03:05:17.453Z,4.72
2023-01-19T03:08:03.571Z,4.38
2023-01-19T03:10:33.088Z,3.70
2023-01-19T03:13:36.259Z,3.57
2023-01-19T03:16:19.682Z,3.95
2023-01-19T03:18:50.198Z,3.90
2023-01-19T03:21:19.593Z,3.70
2023-01-19T03:23:46.752Z,4.05
2023-01-19T03:26:18.537Z,3.57
2023-01-19T03:28:45.964Z,3.63
2023-01-19T03:31:20.808Z,3.75
2023-01-19T03:33:55.375Z,3.63
2023-01-19T03:36:37.035Z,2.97
2023-01-19T03:39:05.218Z,3.33
2023-01-19T03:41:32.781Z,3.30
2023-01-19T03:44:00.055Z,3.00
2023-01-19T03:46:27.333Z,3.00
2023-01-19T03:48:54.907Z,2.95
2023-01-19T03:51:22.045Z,2.83
2023-01-19T03:53:50.080Z,2.75
2023-01-19T03:56:25.172Z,3.42
2023-01-19T03:58:52.132Z,3.13
2023-01-19T04:01:22.908Z,3.50
2023-01-19T04:03:50.526Z,3.30
2023-01-19T04:06:19.287Z,3.58
2023-01-19T04:08:49.088Z,3.63
2023-01-19T04:11:15.893Z,3.60
2023-01-19T04:13:42.457Z,4.03
2023-01-19T04:16:10.414Z,3.67
2023-01-19T04:18:38.313Z,3.97
2023-01-19T04:21:08.657Z,3.45
2023-01-19T04:23:35.199Z,4.05
2023-01-19T04:26:04.486Z,4.15
2023-01-19T04:28:31.793Z,3.93
2023-01-19T04:30:58.839Z,3.65
2023-01-19T04:33:26.528Z,4.00
2023-01-19T04:35:54.577Z,3.75
2023-01-19T04:38:21.613Z,3.53
2023-01-19T04:40:52.682Z,4.20
2023-01-19T04:43:20.413Z,3.28
2023-01-19T04:45:47.547Z,3.38
2023-01-19T04:48:15.718Z,3.40
2023-01-19T04:50:42.264Z,3.45
2023-01-19T04:53:09.422Z,3.17
2023-01-19T04:55:37.849Z,3.30
2023-01-19T04:58:05.811Z,3.10
2023-01-19T05:00:32.372Z,2.70
2023-01-19T05:02:59.383Z,3.17
2023-01-19T05:05:27.363Z,3.53
2023-01-19T05:07:55.323Z,4.00
2023-01-19T05:10:22.246Z,3.95
2023-01-19T05:12:49.241Z,4.18
2023-01-19T05:15:15.998Z,4.18
2023-01-19T05:17:42.685Z,3.70
2023-01-19T05:20:16.490Z,3.30
2023-01-19T05:22:50.881Z,3.50
2023-01-19T05:25:17.914Z,2.83
2023-01-19T05:27:45.261Z,3.50
2023-01-19T05:30:13.391Z,3.23
2023-01-19T05:32:40.139Z,3.83
2023-01-19T05:35:07.298Z,3.00
2023-01-19T05:37:37.436Z,3.35
2023-01-19T05:40:07.835Z,4.18
2023-01-19T05:42:34.832Z,3.60
2023-01-19T05:45:01.502Z,3.58
2023-01-19T05:47:31.181Z,3.53
2023-01-19T05:49:57.967Z,4.07
2023-01-19T05:52:26.721Z,4.30
2023-01-19T05:54:55.247Z,4.53
2023-01-19T05:57:23.404Z,4.78
2023-01-19T05:59:51.004Z,4.53
2023-01-19T06:02:18.140Z,4.30
2023-01-19T06:04:44.965Z,4.25
2023-01-19T06:07:12.762Z,4.47
2023-01-19T06:09:39.359Z,3.67
2023-01-19T06:12:06.401Z,3.78
2023-01-19T06:14:34.270Z,4.18
2023-01-19T06:17:02.580Z,4.10
2023-01-19T06:19:29.113Z,4.23
2023-01-19T06:21:59.825Z,4.70
2023-01-19T06:24:27.924Z,5.05
2023-01-19T06:26:54.883Z,4.40
2023-01-19T06:29:22.131Z,4.53
2023-01-19T06:31:49.153Z,3.97
2023-01-19T06:34:17.343Z,4.55
2023-01-19T06:36:43.961Z,5.10
2023-01-19T06:39:11.201Z,5.22
2023-01-19T06:41:40.531Z,5.03
2023-01-19T06:44:07.200Z,5.23
2023-01-19T06:46:41.526Z,5.15
2023-01-19T06:49:09.425Z,4.93
2023-01-19T06:51:40.725Z,5.15
2023-01-19T06:54:11.340Z,5.35
2023-01-19T06:56:40.632Z,5.60
2023-01-19T06:59:19.037Z,5.75
2023-01-19T07:01:55.246Z,5.05
2023-01-19T07:04:38.426Z,5.35
2023-01-19T07:07:15.046Z,13.52
2023-01-19T07:10:08.929Z,16.83
2023-01-19T07:13:02.518Z,7.93
2023-01-19T07:15:40.805Z,9.40
2023-01-19T07:19:00.801Z,9.35
2023-01-19T07:21:38.792Z,8.50
2023-01-19T07:24:08.402Z,10.43
2023-01-19T07:26:52.756Z,8.23
2023-01-19T07:29:22.292Z,9.02
2023-01-19T07:31:50.768Z,9.32
2023-01-19T07:34:19.843Z,13.18
2023-01-19T07:36:47.913Z,11.83
2023-01-19T07:42:38.827Z,10.52
2023-01-19T07:45:19.437Z,8.57
2023-01-19T07:47:55.041Z,8.18
2023-01-19T07:50:42.777Z,6.67
2023-01-19T07:53:15.891Z,7.35
2023-01-19T07:55:42.837Z,8.07
2023-01-19T07:58:51.395Z,6.97
2023-01-19T08:01:23.544Z,8.40
2023-01-19T08:03:57.898Z,10.63
2023-01-19T08:06:56.906Z,12.68
2023-01-19T08:09:25.618Z,14.80
2023-01-19T08:12:04.719Z,13.13
2023-01-19T08:14:31.302Z,13.43
2023-01-19T08:17:01.482Z,11.97
2023-01-19T08:19:28.816Z,12.32
2023-01-19T08:21:56.607Z,10.77
2023-01-19T08:24:29.670Z,10.93
2023-01-19T08:27:00.882Z,10.63
2023-01-19T08:29:30.700Z,9.73
2023-01-19T08:32:00.299Z,8.88
2023-01-19T08:34:33.440Z,9.75
2023-01-19T08:37:01.391Z,9.07
2023-01-19T08:39:30.647Z,10.57
2023-01-19T08:41:59.960Z,9.63
2023-01-19T08:44:29.654Z,10.20
2023-01-19T08:46:57.117Z,9.93
2023-01-19T08:49:24.029Z,9.15
2023-01-19T08:51:52.003Z,9.10
2023-01-19T08:54:20.242Z,9.93
2023-01-19T08:56:46.833Z,10.38
2023-01-19T08:59:14.274Z,9.85
2023-01-19T09:01:41.747Z,9.48
2023-01-19T09:04:08.570Z,9.35
2023-01-19T09:06:35.262Z,9.07
2023-01-19T09:09:02.546Z,9.48
2023-01-19T09:11:31.351Z,8.93
2023-01-19T09:13:58.167Z,9.25
2023-01-19T09:16:29.289Z,9.57
2023-01-19T09:18:55.914Z,8.57
2023-01-19T09:21:22.437Z,7.85
2023-01-19T09:23:49.446Z,8.60
2023-01-19T09:26:16.673Z,8.38
2023-01-19T09:28:48.337Z,7.97
2023-01-19T09:31:15.193Z,8.20
2023-01-19T09:33:41.999Z,7.55
2023-01-19T09:36:08.584Z,7.80
2023-01-19T09:38:38.038Z,8.88
2023-01-19T09:41:18.529Z,8.73
2023-01-19T09:43:49.291Z,8.70
2023-01-19T09:46:29.638Z,8.93
2023-01-19T09:48:58.320Z,9.13
2023-01-19T09:51:50.320Z,8.48
2023-01-19T09:54:16.874Z,6.97
2023-01-19T09:56:44.643Z,7.40
2023-01-19T09:59:33.425Z,6.47
2023-01-19T10:02:18.843Z,6.85
2023-01-19T10:05:05.947Z,6.30
2023-01-19T10:08:30.234Z,6.60
2023-01-19T10:10:58.380Z,6.50
2023-01-19T10:13:36.531Z,5.57
2023-01-19T10:16:25.189Z,6.60
2023-01-19T10:18:59.433Z,7.63
2023-01-19T10:21:40.147Z,8.18
2023-01-19T10:24:07.842Z,7.47
2023-01-19T10:26:40.944Z,7.60
2023-01-19T10:29:37.799Z,7.82
2023-01-19T10:32:12.222Z,6.70
2023-01-19T10:34:41.684Z,5.90
2023-01-19T10:37:31.332Z,5.90
2023-01-19T10:40:09.473Z,5.63
2023-01-19T10:42:41.122Z,6.07
2023-01-19T10:45:18.241Z,5.88
2023-01-19T10:47:49.602Z,6.78
2023-01-19T10:50:33.914Z,5.93
2023-01-19T10:53:09.969Z,5.85
2023-01-19T10:55:40.214Z,4.32
2023-01-19T10:58:29.109Z,4.15
2023-01-19T11:00:55.927Z,2.55
2023-01-19T11:03:27.319Z,4.70
2023-01-19T11:05:54.086Z,5.10
2023-01-19T11:08:30.077Z,5.65
2023-01-19T11:11:02.381Z,5.20
2023-01-19T11:13:28.975Z,5.85
2023-01-19T11:15:58.428Z,4.70
2023-01-19T11:18:39.414Z,5.95
2023-01-19T11:21:16.656Z,4.60
2023-01-19T11:23:57.675Z,3.97
2023-01-19T11:26:47.924Z,3.85
2023-01-19T11:29:24.528Z,4.93
2023-01-19T11:31:52.285Z,4.25
2023-01-19T11:34:27.211Z,4.07
2023-01-19T11:36:58.354Z,4.45
2023-01-19T11:39:29.093Z,4.18
2023-01-19T11:41:58.969Z,4.73
2023-01-19T11:44:33.141Z,4.32
2023-01-19T11:47:11.419Z,4.25
2023-01-19T11:49:53.703Z,4.63
2023-01-19T11:52:20.245Z,3.63
2023-01-19T11:54:56.334Z,5.20
2023-01-19T11:57:23.121Z,5.97
2023-01-19T11:59:52.389Z,5.50
2023-01-19T12:02:32.471Z,5.22
2023-01-19T12:05:05.302Z,5.07
2023-01-19T12:07:35.711Z,4.00
2023-01-19T12:10:31.984Z,2.88
2023-01-19T12:13:01.387Z,6.15
2023-01-19T12:15:42.368Z,3.38
2023-01-19T12:18:16.521Z,4.60
2023-01-19T12:20:46.919Z,5.00
2023-01-19T12:23:32.018Z,5.20
2023-01-19T12:26:13.856Z,4.93
2023-01-19T12:28:42.643Z,3.30
2023-01-19T12:31:09.500Z,4.43
2023-01-19T12:33:39.873Z,3.77
2023-01-19T12:36:33.222Z,3.20
2023-01-19T12:39:08.787Z,3.45
2023-01-19T12:41:39.257Z,3.95
2023-01-19T12:44:12.066Z,3.20
2023-01-19T12:46:42.372Z,4.90
2023-01-19T12:49:38.510Z,3.53
2023-01-19T12:52:20.415Z,4.10
2023-01-19T12:55:15.012Z,3.03
2023-01-19T12:57:46.902Z,5.97
2023-01-19T13:00:22.543Z,5.50
2023-01-19T13:03:18.349Z,4.10
2023-01-19T13:05:44.911Z,3.72
2023-01-19T13:11:00.407Z,5.38
2023-01-19T13:13:31.097Z,4.50
2023-01-19T13:16:21.259Z,4.03
2023-01-19T13:18:52.795Z,5.13
2023-01-19T13:21:30.579Z,5.32
2023-01-19T13:24:02.732Z,4.82
2023-01-19T13:26:32.626Z,4.27
2023-01-19T13:29:07.666Z,4.65
2023-01-19T13:31:40.187Z,4.75
2023-01-19T13:34:15.457Z,4.03
2023-01-19T13:36:51.108Z,6.78
2023-01-19T13:39:38.138Z,5.97
2023-01-19T13:42:09.727Z,5.40
2023-01-19T13:44:41.443Z,5.40
2023-01-19T13:47:15.352Z,5.85
2023-01-19T13:49:45.130Z,5.65
2023-01-19T13:52:19.225Z,6.17
2023-01-19T13:54:54.352Z,5.93
2023-01-19T13:57:27.180Z,6.70
2023-01-19T14:00:11.985Z,6.70
2023-01-19T14:02:51.015Z,6.38
2023-01-19T14:05:28.830Z,5.60
2023-01-19T14:08:01.548Z,7.10
2023-01-19T14:10:28.754Z,7.75
2023-01-19T14:13:00.127Z,6.63
2023-01-19T14:15:30.322Z,6.03
2023-01-19T14:18:27.957Z,8.57
2023-01-19T14:21:14.098Z,7.07
2023-01-19T14:23:51.354Z,6.50
2023-01-19T14:26:54.641Z,7.97
2023-01-19T14:29:24.381Z,7.18
2023-01-19T14:32:06.412Z,6.97
2023-01-19T14:34:34.284Z,8.35
2023-01-19T14:37:02.568Z,8.48
2023-01-19T14:39:31.973Z,8.82
2023-01-19T14:42:00.481Z,8.52
2023-01-19T14:44:38.180Z,9.33
2023-01-19T14:47:06.104Z,7.93
2023-01-19T14:49:38.617Z,8.52
2023-01-19T14:52:15.842Z,8.63
2023-01-19T14:54:45.028Z,6.93
2023-01-19T14:57:13.726Z,9.97
2023-01-19T14:59:40.850Z,9.82
2023-01-19T15:02:07.805Z,6.63
2023-01-19T15:04:34.322Z,7.50
2023-01-19T15:07:00.915Z,9.23
2023-01-19T15:09:27.501Z,9.67
2023-01-19T15:11:54.096Z,11.90
2023-01-19T15:14:21.696Z,9.90
2023-01-19T15:16:48.323Z,6.72
2023-01-19T15:19:16.859Z,11.18
2023-01-19T15:21:46.266Z,11.40
2023-01-19T15:24:14.885Z,11.80
2023-01-19T15:26:42.882Z,11.82
2023-01-19T15:29:23.358Z,12.23
2023-01-19T15:31:50.571Z,12.18
2023-01-19T15:34:18.009Z,12.47
2023-01-19T15:36:44.775Z,11.65
2023-01-19T15:39:12.661Z,11.75
2023-01-19T15:41:39.846Z,13.10
2023-01-19T15:44:07.147Z,13.05
2023-01-19T15:46:33.890Z,13.23
2023-01-19T15:49:00.474Z,13.98
2023-01-19T15:51:27.653Z,14.55
2023-01-19T15:53:55.272Z,16.05
2023-01-19T15:56:28.711Z,15.82
2023-01-19T15:58:55.678Z,15.93
2023-01-19T16:01:24.269Z,14.77
2023-01-19T16:03:51.214Z,16.40
2023-01-19T16:06:18.040Z,17.65
2023-01-19T16:08:45.098Z,18.08
2023-01-19T16:11:14.497Z,17.37
2023-01-19T16:13:46.385Z,18.17
2023-01-19T16:16:21.155Z,19.73
2023-01-19T16:18:49.353Z,19.67
2023-01-19T16:21:16.017Z,18.35
2023-01-19T16:23:42.555Z,17.50
2023-01-19T16:26:29.262Z,19.48
2023-01-19T16:29:00.155Z,17.63
2023-01-19T16:31:29.248Z,19.42
2023-01-19T16:33:55.956Z,18.83
2023-01-19T16:36:34.437Z,22.40
2023-01-19T16:39:11.872Z,22.42
2023-01-19T16:41:38.769Z,22.25
2023-01-19T16:44:10.800Z,22.15
2023-01-19T16:46:44.664Z,22.00
2023-01-19T16:49:19.496Z,20.90
2023-01-19T16:51:46.358Z,21.83
2023-01-19T16:54:16.383Z,20.67
2023-01-19T16:56:43.235Z,22.65
2023-01-19T16:59:12.640Z,25.25
2023-01-19T17:01:42.289Z,23.23
2023-01-19T17:04:27.120Z,22.52
2023-01-19T17:07:19.442Z,26.02
2023-01-19T17:09:47.688Z,26.88
2023-01-19T17:12:14.305Z,25.77
2023-01-19T17:14:43.145Z,23.73
2023-01-19T17:17:12.269Z,19.50
2023-01-19T17:19:47.391Z,25.65
2023-01-19T17:22:15.049Z,24.67
2023-01-19T17:24:43.197Z,24.73
2023-01-19T17:27:10.167Z,19.10
2023-01-19T17:29:36.961Z,16.08
2023-01-19T17:32:03.905Z,26.08
2023-01-19T17:34:33.254Z,22.55
2023-01-19T17:37:08.343Z,27.60
2023-01-19T17:39:34.881Z,27.73
2023-01-19T17:42:01.616Z,26.52
2023-01-19T17:44:35.332Z,29.95
2023-01-19T17:47:02.981Z,28.70
2023-01-19T17:49:30.761Z,28.08
2023-01-19T17:51:59.663Z,29.40
2023-01-19T17:54:26.240Z,29.58
2023-01-19T17:56:52.924Z,30.10
2023-01-19T17:59:21.309Z,29.25
2023-01-19T18:01:51.146Z,27.70
2023-01-19T18:04:26.764Z,27.07
2023-01-19T18:06:57.124Z,26.50
2023-01-19T18:09:24.301Z,27.25
2023-01-19T18:11:50.909Z,26.45
2023-01-19T18:14:18.751Z,24.23
2023-01-19T18:16:45.364Z,24.60
2023-01-19T18:19:13.160Z,26.60
2023-01-19T18:21:40.847Z,25.30
2023-01-19T18:24:07.665Z,23.90
2023-01-19T18:26:35.245Z,23.70
2023-01-19T18:29:04.556Z,26.40
2023-01-19T18:31:31.616Z,24.15
2023-01-19T18:34:01.078Z,26.17
2023-01-19T18:36:27.763Z,26.50
2023-01-19T18:38:54.276Z,25.85
2023-01-19T18:41:21.805Z,26.97
2023-01-19T18:43:48.667Z,26.60
2023-01-19T18:46:17.789Z,29.52
2023-01-19T18:48:47.640Z,28.73
2023-01-19T18:51:19.023Z,28.63
2023-01-19T18:53:45.687Z,29.70
2023-01-19T18:56:13.644Z,30.38
2023-01-19T18:58:40.253Z,28.15
2023-01-19T19:01:20.121Z,28.45
2023-01-19T19:03:46.783Z,27.92
2023-01-19T19:06:14.400Z,33.57
2023-01-19T19:08:43.261Z,32.30
2023-01-19T19:11:11.161Z,33.88
2023-01-19T19:13:41.061Z,33.08
2023-01-19T19:16:09.198Z,34.35
2023-01-19T19:18:37.558Z,33.17
2023-01-19T19:21:06.095Z,34.83
2023-01-19T19:23:33.012Z,36.33
2023-01-19T19:26:10.370Z,35.85
2023-01-19T19:28:41.933Z,36.38
2023-01-19T19:31:11.166Z,37.90
2023-01-19T19:33:38.981Z,38.53
2023-01-19T19:36:06.996Z,39.45
2023-01-19T19:38:42.899Z,37.28
2023-01-19T19:41:12.792Z,38.60
2023-01-19T19:43:39.652Z,37.07
2023-01-19T19:46:11.045Z,36.30
2023-01-19T19:48:46.004Z,33.45
2023-01-19T19:51:38.936Z,33.88
2023-01-19T19:54:08.395Z,33.95
2023-01-19T19:56:43.908Z,34.70
2023-01-19T19:59:11.559Z,32.13
2023-01-19T20:01:38.523Z,35.47
2023-01-19T20:04:15.525Z,31.88
2023-01-19T20:06:44.729Z,32.25
2023-01-19T20:09:16.222Z,32.00
2023-01-19T20:11:46.701Z,33.38
2023-01-19T20:14:14.385Z,32.33
2023-01-19T20:16:41.026Z,32.20
2023-01-19T20:19:07.812Z,32.78
2023-01-19T20:21:39.249Z,32.50
2023-01-19T20:24:13.358Z,31.45
2023-01-19T20:26:42.884Z,30.83
2023-01-19T20:29:11.124Z,29.92
2023-01-19T20:31:45.012Z,30.95
2023-01-19T20:34:14.283Z,28.70
2023-01-19T20:36:41.609Z,28.75
2023-01-19T20:39:12.762Z,31.08
2023-01-19T20:41:43.501Z,29.50
2023-01-19T20:44:22.324Z,32.10
2023-01-19T20:46:51.702Z,30.73
2023-01-19T20:49:19.661Z,29.98
2023-01-19T20:51:47.015Z,30.63
2023-01-19T20:54:17.342Z,30.50
2023-01-19T20:56:44.177Z,31.55
2023-01-19T20:59:12.024Z,29.03
2023-01-19T21:01:39.171Z,31.38
2023-01-19T21:04:05.993Z,31.42
2023-01-19T21:06:32.829Z,29.25
2023-01-19T21:09:00.935Z,27.65
2023-01-19T21:11:29.419Z,27.87
2023-01-19T21:13:56.485Z,28.20
2023-01-19T21:16:27.612Z,27.08
2023-01-19T21:18:57.782Z,27.27
2023-01-19T21:21:30.838Z,26.63
2023-01-19T21:24:14.396Z,24.40
2023-01-19T21:26:41.866Z,24.83
2023-01-19T21:29:14.130Z,24.08
2023-01-19T21:31:41.374Z,22.10
2023-01-19T21:34:08.031Z,20.73
2023-01-19T21:36:36.486Z,25.20
2023-01-19T21:39:05.312Z,24.00
2023-01-19T21:41:35.071Z,19.45
2023-01-19T21:44:04.756Z,18.05
2023-01-19T21:46:37.361Z,15.90
2023-01-19T21:49:07.603Z,15.47
2023-01-19T21:51:36.396Z,16.40
2023-01-19T21:54:04.553Z,17.17
2023-01-19T21:56:33.395Z,16.83
2023-01-19T21:59:03.602Z,16.27
2023-01-19T22:01:36.450Z,15.63
2023-01-19T22:04:05.264Z,16.02
2023-01-19T22:06:32.168Z,16.30
2023-01-19T22:09:01.023Z,14.95
2023-01-19T22:11:30.765Z,14.98
2023-01-19T22:14:00.050Z,13.90
2023-01-19T22:16:28.732Z,13.82
2023-01-19T22:18:59.442Z,10.02
2023-01-19T22:21:39.284Z,14.93
2023-01-19T22:24:06.458Z,9.05
2023-01-19T22:26:34.469Z,12.40
2023-01-19T22:29:02.738Z,14.90
2023-01-19T22:31:30.438Z,13.73
2023-01-19T22:33:57.903Z,13.52
2023-01-19T22:36:29.162Z,12.90
2023-01-19T22:39:02.161Z,14.83
2023-01-19T22:41:31.637Z,12.55
2023-01-19T22:44:08.930Z,11.13
2023-01-19T22:46:36.535Z,11.75
2023-01-19T22:49:04.426Z,10.82
2023-01-19T22:51:32.304Z,12.97
2023-01-19T22:53:59.203Z,11.65
2023-01-19T22:56:30.149Z,9.82
2023-01-19T22:58:57.092Z,9.27
2023-01-19T23:01:36.594Z,9.43
2023-01-19T23:04:04.513Z,8.63
2023-01-19T23:06:33.087Z,8.95
2023-01-19T23:09:02.321Z,9.10
2023-01-19T23:11:35.679Z,9.98
2023-01-19T23:14:02.617Z,8.55
2023-01-19T23:16:29.202Z,9.23
2023-01-19T23:18:57.365Z,9.27
2023-01-19T23:21:28.591Z,9.23
2023-01-19T23:24:02.586Z,8.75
2023-01-19T23:26:30.775Z,9.43
2023-01-19T23:29:03.012Z,9.30
2023-01-19T23:31:32.710Z,7.82
2023-01-19T23:34:01.752Z,9.57
2023-01-19T23:36:31.078Z,8.65
2023-01-19T23:39:00.123Z,9.50
2023-01-19T23:41:36.155Z,8.90
2023-01-19T23:44:03.049Z,8.55
2023-01-19T23:46:30.638Z,9.18
2023-01-19T23:48:58.979Z,8.23
2023-01-19T23:51:28.931Z,8.85
2023-01-19T23:53:58.071Z,9.20
2023-01-19T23:56:26.938Z,8.82
2023-01-19T23:58:56.254Z,8.45
